Time;durP1;ratioP1;P1;durP2;ratioP2;P2;SDS_P1;SDS_P2;PMS_P1;PMS_P2;Temp;Humidity;BMP_temperature;BMP_pressure;BME280_temperature;BME280_humidity;BME280_pressure;Samples;Min_cycle;Max_cycle;Signal;HPM_P1;HPM_P2
2022/01/29 00:00:54;;;;;;;;;;;;;;;;;;;;;
2022/01/29 00:04:32;;;;;;;16.40;6.70;;;;;;;0.25;68.15;101432.92;111604;1257;21946;-85
2022/01/29 00:11:45;;;;;;;11.70;5.30;;;;;;;0.37;68.25;101428.86;111256;1259;21930;-86
2022/01/29 00:14:38;;;;;;;;;;;;;;;0.42;68.32;101427.23;110705;1261;23057;-86
2022/01/29 00:18:06;;;;;;;10.30;4.60;;;;;;;0.41;68.51;101427.66;111195;1260;21989;-85
2022/01/29 00:21:11;;;;;;;13.90;5.30;;;;;;;0.44;68.43;101434.23;110912;1260;22085;-85
2022/01/29 00:24:15;;;;;;;13.50;5.50;;;;;;;0.49;68.39;101434.69;110424;1261;22913;-84
2022/01/29 00:27:09;;;;;;;12.30;6.00;;;;;;;0.54;68.13;101438.45;109755;1263;22261;-86
2022/01/29 00:29:42;;;;;;;14.90;6.10;;;;;;;0.58;67.95;101442.06;109635;1263;22046;-78
2022/01/29 00:32:19;;;;;;;12.40;6.70;;;;;;;0.62;67.84;101443.05;109383;1264;24343;-79
2022/01/29 00:34:48;;;;;;;14.60;6.50;;;;;;;0.64;67.74;101444.49;109584;1263;23766;-77
2022/01/29 00:37:17;;;;;;;13.10;6.10;;;;;;;0.65;67.65;101444.79;109495;1265;22122;-79
2022/01/29 00:39:47;;;;;;;10.10;5.60;;;;;;;0.64;67.47;101450.39;109630;1264;21981;-77
2022/01/29 00:42:16;;;;;;;13.30;6.20;;;;;;;0.63;67.54;101448.91;108937;1270;23086;-80
2022/01/29 00:44:46;;;;;;;11.80;6.10;;;;;;;0.60;67.42;101445.75;109100;1270;23090;-79
2022/01/29 00:47:18;;;;;;;10.60;6.10;;;;;;;0.56;67.43;101443.34;108928;1270;22231;-79
2022/01/29 00:49:50;;;;;;;12.80;6.40;;;;;;;0.52;67.27;101438.04;108805;1273;21985;-78
2022/01/29 00:52:20;;;;;;;13.50;7.00;;;;;;;0.47;67.31;101436.50;108454;1278;21993;-79
2022/01/29 00:54:50;;;;;;;11.30;5.80;;;;;;;0.46;67.32;101436.91;108472;1278;23644;-81
2022/01/29 00:57:31;;;;;;;13.60;6.90;;;;;;;0.45;67.26;101438.51;108569;1279;22007;-77
2022/01/29 01:00:02;;;;;;;12.50;6.60;;;;;;;0.47;67.24;101437.23;108474;1273;23700;-79
2022/01/29 01:02:32;;;;;;;11.70;6.10;;;;;;;0.49;67.27;101434.69;108897;1270;21987;-78
2022/01/29 01:05:08;;;;;;;14.20;5.80;;;;;;;0.52;67.23;101438.20;109025;1273;22074;-79
2022/01/29 01:07:39;;;;;;;12.30;5.80;;;;;;;0.53;67.23;101436.59;108860;1273;22087;-79
2022/01/29 01:10:10;;;;;;;12.10;5.60;;;;;;;0.53;67.09;101435.20;108943;1266;22003;-78
2022/01/29 01:12:40;;;;;;;12.00;6.20;;;;;;;0.51;67.00;101431.98;109491;1267;23046;-78
2022/01/29 01:15:12;;;;;;;13.00;5.90;;;;;;;0.49;66.96;101427.94;109637;1261;23033;-79
2022/01/29 01:17:42;;;;;;;;;;;;;;;0.47;66.89;101421.10;109447;1264;22704;-78
2022/01/29 01:20:12;;;;;;;14.30;6.20;;;;;;;0.39;66.99;101411.95;109601;1261;21972;-78
2022/01/29 01:22:42;;;;;;;13.40;7.20;;;;;;;0.37;67.03;101407.02;109832;1263;23694;-78
2022/01/29 01:25:11;;;;;;;21.00;7.90;;;;;;;0.40;66.98;101403.10;109530;1263;23612;-78
2022/01/29 01:27:43;;;;;;;12.40;6.70;;;;;;;0.43;67.01;101398.77;108972;1267;23091;-78
2022/01/29 01:30:13;;;;;;;11.30;6.60;;;;;;;0.44;66.84;101396.09;108720;1273;22046;-78
2022/01/29 01:32:42;;;;;;;13.30;6.50;;;;;;;0.47;66.93;101392.52;108548;1273;23707;-78
2022/01/29 01:36:02;;;;;;;13.90;7.10;;;;;;;0.48;66.86;101392.27;108522;1276;24176;-78
2022/01/29 01:40:40;;;;;;;15.80;6.70;;;;;;;0.47;66.87;101388.70;108259;1285;22018;-79
2022/01/29 01:43:10;;;;;;;13.00;6.10;;;;;;;0.45;66.88;101381.67;107546;1288;22107;-81
2022/01/29 01:45:43;;;;;;;16.20;7.50;;;;;;;0.43;66.78;101377.45;107800;1286;23684;-79
2022/01/29 01:48:24;;;;;;;;;;;;;;;;;;;;;
2022/01/29 01:51:08;;;;;;;14.20;7.70;;;;;;;0.40;66.82;101364.59;107858;1288;22018;-79
2022/01/29 01:53:47;;;;;;;12.50;7.20;;;;;;;0.40;66.80;101361.83;107684;1285;22003;-78
2022/01/29 01:56:29;;;;;;;16.80;6.50;;;;;;;0.43;66.97;101360.30;107739;1288;24075;-77
2022/01/29 01:58:58;;;;;;;21.00;9.00;;;;;;;0.48;67.02;101357.08;107748;1285;24432;-79
2022/01/29 02:01:28;;;;;;;17.20;7.20;;;;;;;0.54;66.96;101353.52;108396;1279;22362;-77
2022/01/29 02:04:01;;;;;;;15.10;6.10;;;;;;;0.57;67.02;101352.12;108266;1282;23090;-79
2022/01/29 02:06:33;;;;;;;17.70;6.80;;;;;;;0.60;67.12;101355.11;108089;1281;23599;-79
2022/01/29 02:09:03;;;;;;;15.60;7.00;;;;;;;0.60;67.14;101350.24;108396;1279;22794;-79
2022/01/29 02:11:32;;;;;;;13.90;7.30;;;;;;;0.61;67.09;101349.67;108420;1278;21991;-78
2022/01/29 02:14:03;;;;;;;13.40;7.00;;;;;;;0.60;67.09;101345.02;108145;1278;163028;-78
2022/01/29 02:16:34;;;;;;;13.50;7.00;;;;;;;0.60;67.08;101339.66;108417;1276;23188;-78
2022/01/29 02:19:05;;;;;;;13.90;6.50;;;;;;;0.59;66.95;101345.59;108530;1279;23602;-78
2022/01/29 02:21:39;;;;;;;12.30;6.60;;;;;;;0.60;67.06;101351.82;108495;1277;22029;-79
2022/01/29 02:24:08;;;;;;;13.60;6.40;;;;;;;0.62;67.05;101348.40;108526;1273;22130;-79
2022/01/29 02:26:40;;;;;;;14.50;7.20;;;;;;;0.64;66.97;101344.00;108433;1276;23624;-79
2022/01/29 02:29:13;;;;;;;13.10;7.00;;;;;;;0.65;66.96;101335.22;108472;1278;22006;-79
2022/01/29 02:31:55;;;;;;;13.10;6.60;;;;;;;0.65;66.95;101336.27;108462;1276;23043;-80
2022/01/29 02:34:33;;;;;;;16.90;7.60;;;;;;;0.62;66.91;101335.21;108918;1276;23119;-80
2022/01/29 02:37:06;;;;;;;14.70;7.20;;;;;;;0.60;66.94;101330.12;108659;1270;23760;-79
2022/01/29 02:39:35;;;;;;;15.20;7.30;;;;;;;0.57;66.97;101318.65;108904;1270;22213;-79
2022/01/29 02:42:05;;;;;;;13.80;7.00;;;;;;;0.55;67.00;101311.14;108833;1273;21986;-80
2022/01/29 02:44:35;;;;;;;15.60;7.70;;;;;;;0.55;67.01;101309.29;108666;1276;22136;-79
2022/01/29 02:47:26;;;;;;;12.00;6.70;;;;;;;0.53;67.03;101308.64;108722;1276;22032;-80
2022/01/29 02:50:01;;;;;;;13.60;6.60;;;;;;;0.53;67.03;101304.35;108718;1276;22058;-80
2022/01/29 02:52:33;;;;;;;13.00;6.90;;;;;;;0.53;67.11;101308.98;108733;1276;22040;-80
2022/01/29 02:55:05;;;;;;;12.70;7.30;;;;;;;0.55;67.14;101308.41;108746;1276;22015;-79
2022/01/29 02:57:37;;;;;;;13.30;6.90;;;;;;;0.55;67.09;101307.17;109005;1273;23628;-79
2022/01/29 03:00:10;;;;;;;15.40;8.40;;;;;;;0.53;67.14;101310.70;108933;1267;23731;-79
2022/01/29 03:02:45;;;;;;;12.70;8.10;;;;;;;0.52;67.10;101313.40;108975;1267;23602;-79
2022/01/29 03:05:16;;;;;;;32.80;16.10;;;;;;;0.49;67.17;101320.13;108840;1270;23160;-79
2022/01/29 03:07:47;;;;;;;24.40;12.90;;;;;;;0.45;67.27;101314.94;108808;1272;22863;-79
2022/01/29 03:10:19;;;;;;;34.50;18.70;;;;;;;0.41;67.24;101307.21;108975;1267;23019;-79
2022/01/29 03:12:50;;;;;;;;;;;;;;;0.37;67.33;101298.75;109253;1267;22016;-79
2022/01/29 03:15:21;;;;;;;16.50;8.30;;;;;;;0.26;67.42;101290.09;108704;1273;22009;-78
2022/01/29 03:17:53;;;;;;;18.50;9.10;;;;;;;0.23;67.55;101281.79;108703;1276;23141;-79
2022/01/29 03:20:25;;;;;;;23.00;8.40;;;;;;;0.24;67.79;101277.40;108536;1276;22167;-78
2022/01/29 03:23:01;;;;;;;22.20;8.40;;;;;;;0.26;67.90;101272.98;108611;1270;22261;-79
2022/01/29 03:25:33;;;;;;;16.60;8.20;;;;;;;0.28;67.90;101271.86;108845;1270;21977;-80
2022/01/29 03:28:08;;;;;;;18.70;10.50;;;;;;;0.29;68.04;101272.81;108909;1270;23713;-79
2022/01/29 03:30:37;;;;;;;19.40;7.80;;;;;;;0.29;68.17;101273.34;108873;1270;23631;-79
2022/01/29 03:33:07;;;;;;;20.70;8.60;;;;;;;0.30;68.23;101268.64;109237;1266;21985;-80
2022/01/29 03:35:38;;;;;;;17.90;9.40;;;;;;;0.31;68.29;101268.20;109249;1267;22040;-79
2022/01/29 03:38:07;;;;;;;16.30;7.20;;;;;;;0.32;68.36;101261.58;109404;1267;22005;-79
2022/01/29 03:40:40;;;;;;;17.40;7.90;;;;;;;0.33;68.47;101264.13;109289;1267;22029;-79
2022/01/29 03:43:15;;;;;;;15.80;8.30;;;;;;;0.34;68.57;101267.86;109680;1264;21991;-79
2022/01/29 03:45:44;;;;;;;21.90;8.20;;;;;;;0.35;68.70;101268.70;109649;1264;21987;-79
2022/01/29 03:48:14;;;;;;;22.00;9.00;;;;;;;0.35;68.80;101270.42;109840;1263;21991;-80
2022/01/29 03:50:49;;;;;;;19.50;9.10;;;;;;;0.36;69.00;101268.83;109243;1267;22033;-79
2022/01/29 03:53:19;;;;;;;20.60;8.60;;;;;;;0.36;69.11;101263.45;109163;1270;22779;-80
2022/01/29 03:55:54;;;;;;;15.90;8.40;;;;;;;0.34;69.21;101257.31;109327;1268;22234;-79
2022/01/29 03:58:24;;;;;;;19.70;9.20;;;;;;;0.30;69.33;101252.14;109288;1268;21991;-80
2022/01/29 04:00:54;;;;;;;18.80;8.70;;;;;;;0.26;69.40;101245.97;109068;1268;21998;-79
2022/01/29 04:03:23;;;;;;;26.70;9.80;;;;;;;0.22;69.52;101238.17;108984;1268;21951;-80
2022/01/29 04:05:52;;;;;;;18.90;10.00;;;;;;;0.21;69.67;101234.93;109252;1269;22086;-79
2022/01/29 04:08:23;;;;;;;20.10;10.60;;;;;;;0.20;69.79;101236.56;109210;1264;21966;-79
2022/01/29 04:10:54;;;;;;;21.10;10.10;;;;;;;0.20;69.99;101238.11;109781;1261;22876;-79
2022/01/29 04:13:26;;;;;;;21.60;10.20;;;;;;;0.21;70.03;101234.08;109611;1264;23571;-79
2022/01/29 04:15:56;;;;;;;21.70;10.20;;;;;;;0.22;70.10;101235.04;109646;1261;22235;-80
2022/01/29 04:18:25;;;;;;;23.60;10.10;;;;;;;0.22;70.09;101235.92;109950;1261;22996;-79
2022/01/29 04:20:55;;;;;;;34.80;11.70;;;;;;;0.22;70.24;101240.27;109769;1261;21996;-79
2022/01/29 04:23:24;;;;;;;22.70;10.00;;;;;;;0.24;70.49;101242.05;109323;1264;23007;-78
2022/01/29 04:25:54;;;;;;;21.50;9.40;;;;;;;0.26;70.61;101240.94;109324;1264;21983;-79
2022/01/29 04:28:29;;;;;;;22.00;10.20;;;;;;;0.29;70.70;101243.89;109260;1265;23613;-77
2022/01/29 04:31:03;;;;;;;20.60;8.10;;;;;;;0.28;70.68;101240.30;109028;1270;22457;-78
2022/01/29 04:33:33;;;;;;;21.50;10.40;;;;;;;0.25;70.69;101229.17;108798;1270;21998;-79
2022/01/29 04:36:06;;;;;;;23.70;10.10;;;;;;;0.25;70.74;101226.26;109062;1270;23833;-78
2022/01/29 04:38:51;;;;;;;19.90;9.30;;;;;;;0.25;70.84;101229.04;108880;1270;22027;-77
2022/01/29 04:41:23;;;;;;;19.10;8.80;;;;;;;0.25;71.03;101228.69;109030;1267;21990;-78
2022/01/29 04:43:55;;;;;;;23.30;9.70;;;;;;;0.27;71.19;101225.42;109177;1267;22764;-79
2022/01/29 04:46:25;;;;;;;20.10;10.00;;;;;;;0.29;71.26;101222.08;109058;1268;23146;-79
2022/01/29 04:48:55;;;;;;;17.50;9.50;;;;;;;0.33;71.56;101224.63;109014;1264;22000;-78
2022/01/29 04:51:26;;;;;;;23.60;9.20;;;;;;;0.35;71.59;101228.83;109202;1265;23749;-79
2022/01/29 04:53:55;;;;;;;23.70;9.00;;;;;;;0.35;71.56;101228.28;108755;1270;22912;-79
2022/01/29 04:56:25;;;;;;;22.40;8.50;;;;;;;0.37;71.74;101223.19;109066;1270;23056;-79
2022/01/29 04:58:55;;;;;;;18.10;8.90;;;;;;;0.37;71.77;101217.64;108997;1270;21976;-79
2022/01/29 05:01:25;;;;;;;22.00;9.60;;;;;;;0.38;71.85;101216.20;108557;1273;22194;-79
2022/01/29 05:03:54;;;;;;;23.20;10.70;;;;;;;0.41;71.97;101215.01;108646;1273;21985;-79
2022/01/29 05:06:24;;;;;;;22.60;8.40;;;;;;;0.43;71.90;101213.65;108707;1276;22012;-79
2022/01/29 05:08:54;;;;;;;15.90;8.40;;;;;;;0.44;72.11;101199.73;108716;1276;23082;-79
2022/01/29 05:11:23;;;;;;;29.40;9.40;;;;;;;0.48;72.18;101191.05;108496;1273;23057;-79
2022/01/29 05:13:53;;;;;;;25.10;10.70;;;;;;;0.51;72.27;101182.94;108527;1273;22444;-79
2022/01/29 05:16:36;;;;;;;29.40;10.20;;;;;;;0.54;72.35;101177.23;108695;1273;21995;-79
2022/01/29 05:27:30;;;;;;;20.50;9.20;;;;;;;0.54;72.62;101170.14;109144;1270;22001;-80
2022/01/29 05:29:59;;;;;;;22.70;8.40;;;;;;;0.58;72.81;101167.96;108993;1270;23609;-80
2022/01/29 05:32:28;;;;;;;25.10;9.30;;;;;;;0.64;72.92;101156.53;109039;1270;22001;-79
2022/01/29 05:34:57;;;;;;;26.80;8.50;;;;;;;0.69;73.00;101144.34;109210;1268;23123;-77
2022/01/29 05:37:41;;;;;;;27.80;9.70;;;;;;;0.74;73.11;101139.04;108946;1268;23055;-77
2022/01/29 05:40:11;;;;;;;20.60;9.50;;;;;;;0.80;73.07;101137.31;108987;1265;22033;-77
2022/01/29 05:42:41;;;;;;;29.90;10.30;;;;;;;0.84;73.11;101134.33;109211;1267;22320;-77
2022/01/29 05:45:11;;;;;;;26.30;8.70;;;;;;;0.88;73.20;101127.33;109203;1264;23040;-77
2022/01/29 05:47:42;;;;;;;27.30;9.50;;;;;;;0.93;73.21;101124.45;109960;1261;25023;-78
2022/01/29 05:50:12;;;;;;;29.60;10.00;;;;;;;0.94;73.02;101112.42;109791;1261;21985;-78
2022/01/29 05:52:45;;;;;;;18.60;8.00;;;;;;;0.94;73.06;101111.90;109767;1261;23606;-78
2022/01/29 05:55:15;;;;;;;24.10;10.30;;;;;;;0.97;73.19;101109.48;109675;1262;23834;-78
2022/01/29 05:57:44;;;;;;;25.00;9.70;;;;;;;1.02;73.25;101106.06;109759;1262;23593;-78
2022/01/29 06:00:15;;;;;;;27.40;9.70;;;;;;;1.04;73.17;101099.70;108983;1270;21987;-77
2022/01/29 06:02:46;;;;;;;31.40;10.10;;;;;;;1.04;73.10;101089.63;109106;1267;22003;-77
2022/01/29 06:05:16;;;;;;;23.60;11.00;;;;;;;1.03;73.07;101089.85;109103;1267;21979;-79
2022/01/29 06:07:45;;;;;;;33.00;11.30;;;;;;;1.05;73.21;101093.56;109133;1268;23626;-78
2022/01/29 06:10:16;;;;;;;29.80;11.50;;;;;;;1.07;73.15;101090.00;109113;1267;23839;-79
2022/01/29 06:12:59;;;;;;;27.50;11.20;;;;;;;1.09;73.15;101090.39;109104;1267;22599;-80
2022/01/29 06:15:34;;;;;;;27.00;11.00;;;;;;;1.11;73.24;101093.54;108976;1270;22094;-78
2022/01/29 06:18:06;;;;;;;26.30;10.10;;;;;;;1.13;73.39;101098.14;109263;1264;21941;-78
2022/01/29 06:20:36;;;;;;;24.80;10.50;;;;;;;1.17;73.40;101103.64;109743;1263;23731;-79
2022/01/29 06:23:12;;;;;;;24.60;11.90;;;;;;;1.20;73.37;101096.19;109195;1263;22008;-79
2022/01/29 06:25:44;;;;;;;31.40;11.90;;;;;;;1.21;73.33;101089.70;109156;1267;23613;-78
2022/01/29 06:28:13;;;;;;;33.10;13.80;;;;;;;1.23;73.29;101080.41;109152;1267;21980;-78
2022/01/29 06:30:42;;;;;;;31.20;14.40;;;;;;;1.24;73.38;101057.59;109146;1267;23602;-78
2022/01/29 06:33:16;;;;;;;28.50;12.10;;;;;;;1.25;73.38;101036.87;109134;1267;21985;-78
2022/01/29 06:35:47;;;;;;;28.50;11.50;;;;;;;1.24;73.27;101028.26;109036;1268;22779;-78
2022/01/29 06:38:17;;;;;;;29.10;10.90;;;;;;;1.23;73.42;101024.86;109164;1267;23698;-80
2022/01/29 06:40:47;;;;;;;29.90;12.40;;;;;;;1.23;73.45;101023.77;109083;1267;23716;-77
2022/01/29 06:43:18;;;;;;;37.50;13.40;;;;;;;1.22;73.39;101017.46;108911;1270;21975;-77
2022/01/29 06:45:48;;;;;;;40.50;13.20;;;;;;;1.23;73.53;101018.11;109053;1267;24308;-76
2022/01/29 06:48:25;;;;;;;40.60;15.00;;;;;;;1.24;73.56;101017.34;108825;1270;21986;-78
2022/01/29 06:50:57;;;;;;;;;;;;;;;1.27;73.76;101014.02;108736;1271;22003;-78
2022/01/29 06:53:31;;;;;;;36.00;19.40;;;;;;;1.23;73.84;101015.15;108543;1276;22170;-78
2022/01/29 06:56:07;;;;;;;45.00;20.30;;;;;;;1.27;74.07;101018.20;108597;1276;22322;-78
2022/01/29 06:58:40;;;;;;;44.10;20.20;;;;;;;1.32;73.90;101017.20;108386;1276;21998;-77
2022/01/29 07:01:33;;;;;;;33.20;16.70;;;;;;;1.35;73.92;101019.10;108342;1279;23768;-77
2022/01/29 07:04:03;;;;;;;39.10;19.70;;;;;;;1.39;73.94;101019.89;108408;1277;22004;-78
2022/01/29 07:06:36;;;;;;;40.80;16.70;;;;;;;1.42;73.84;101020.42;108435;1274;23627;-78
2022/01/29 07:09:26;;;;;;;39.30;18.00;;;;;;;1.44;73.87;101023.22;108588;1273;22046;-77
2022/01/29 07:12:07;;;;;;;41.00;17.50;;;;;;;1.46;73.90;101018.59;108735;1268;23106;-78
2022/01/29 07:14:39;;;;;;;44.60;21.50;;;;;;;1.49;73.88;101009.56;108894;1270;22033;-77
2022/01/29 07:17:22;;;;;;;87.10;56.00;;;;;;;1.51;73.82;101004.45;108951;1270;22940;-77
2022/01/29 07:20:20;;;;;;;139.90;79.80;;;;;;;1.54;74.01;100995.58;108804;1270;22285;-77
2022/01/29 07:22:53;;;;;;;287.50;171.70;;;;;;;1.61;74.14;100990.30;109094;1268;22923;-78
2022/01/29 07:25:26;;;;;;;126.30;70.70;;;;;;;1.69;74.22;100989.27;109103;1267;23598;-78
2022/01/29 07:27:56;;;;;;;95.30;47.70;;;;;;;1.78;74.14;100986.95;109134;1268;23675;-85
2022/01/29 07:30:25;;;;;;;65.90;33.10;;;;;;;1.85;74.11;100979.69;109150;1269;22793;-82
2022/01/29 07:32:55;;;;;;;61.30;33.50;;;;;;;1.94;73.95;100975.86;109178;1268;23727;-79
2022/01/29 07:35:25;;;;;;;48.20;25.00;;;;;;;2.06;74.20;100973.05;108822;1274;22112;-79
2022/01/29 07:37:54;;;;;;;47.10;21.90;;;;;;;2.19;73.97;100969.93;108248;1278;23618;-78
2022/01/29 07:40:24;;;;;;;45.40;18.30;;;;;;;2.28;73.53;100966.73;108344;1279;22021;-80
2022/01/29 07:42:57;;;;;;;41.10;17.00;;;;;;;2.37;73.39;100965.84;108541;1279;22795;-78
2022/01/29 07:45:26;;;;;;;35.70;14.10;;;;;;;2.43;73.12;100963.56;108274;1279;22019;-78
2022/01/29 07:47:56;;;;;;;31.00;13.30;;;;;;;2.45;72.89;100959.60;108194;1279;23690;-78
2022/01/29 07:50:27;;;;;;;29.90;13.40;;;;;;;2.46;72.62;100951.88;108329;1279;22989;-78
2022/01/29 07:53:00;;;;;;;36.20;15.50;;;;;;;2.46;72.37;100944.41;108557;1273;23698;-78
2022/01/29 07:55:31;;;;;;;35.60;14.40;;;;;;;2.47;72.36;100941.36;108508;1273;23606;-79
2022/01/29 07:58:03;;;;;;;35.10;15.90;;;;;;;2.50;72.26;100934.90;108794;1270;24308;-79
2022/01/29 08:00:37;;;;;;;36.20;17.10;;;;;;;2.55;72.10;100929.20;108921;1273;23730;-80
2022/01/29 08:03:07;;;;;;;42.40;18.60;;;;;;;2.57;71.86;100925.05;108903;1267;21952;-80
2022/01/29 08:05:37;;;;;;;29.00;13.40;;;;;;;2.60;71.83;100924.01;109125;1267;21984;-80
2022/01/29 08:08:07;;;;;;;41.70;15.20;;;;;;;2.61;71.60;100925.64;109065;1270;22411;-80
2022/01/29 08:10:40;;;;;;;32.70;14.30;;;;;;;2.62;71.49;100922.27;109120;1270;22028;-81
2022/01/29 08:13:12;;;;;;;;;;;;;;;2.61;71.31;100915.01;108713;1276;23818;-81
2022/01/29 08:15:41;;;;;;;32.00;14.10;;;;;;;2.53;71.41;100913.46;108719;1276;23122;-81
2022/01/29 08:18:11;;;;;;;41.20;17.20;;;;;;;2.51;71.42;100914.27;108710;1272;23041;-81
2022/01/29 08:20:42;;;;;;;29.80;16.70;;;;;;;2.52;71.39;100907.79;108950;1273;21998;-80
2022/01/29 08:23:12;;;;;;;40.60;17.50;;;;;;;2.54;71.45;100905.21;108966;1273;22001;-81
2022/01/29 08:25:41;;;;;;;39.40;20.80;;;;;;;2.57;71.34;100897.20;109092;1269;23049;-80
2022/01/29 08:28:11;;;;;;;40.20;18.60;;;;;;;2.62;71.37;100896.35;109137;1267;21982;-80
2022/01/29 08:30:43;;;;;;;39.60;19.90;;;;;;;2.69;71.34;100895.39;109091;1270;22067;-80
2022/01/29 08:33:18;;;;;;;41.00;19.80;;;;;;;2.76;71.40;100888.80;109319;1270;24323;-81
2022/01/29 08:35:48;;;;;;;42.80;19.90;;;;;;;2.84;71.32;100885.45;108758;1275;23040;-81
2022/01/29 08:38:18;;;;;;;46.70;21.70;;;;;;;2.90;70.97;100887.17;108973;1270;21986;-80
2022/01/29 08:40:52;;;;;;;48.30;24.60;;;;;;;2.93;70.90;100886.92;109123;1270;22007;-80
2022/01/29 08:43:23;;;;;;;51.90;30.70;;;;;;;2.99;71.11;100882.55;109139;1271;21980;-81
2022/01/29 08:45:56;;;;;;;40.90;21.90;;;;;;;3.06;71.08;100883.59;108972;1270;22105;-81
2022/01/29 08:48:25;;;;;;;42.50;18.70;;;;;;;3.11;70.95;100884.63;109016;1270;21988;-80
2022/01/29 08:50:56;;;;;;;39.30;20.80;;;;;;;3.14;70.71;100888.45;109135;1271;22027;-81
2022/01/29 08:53:26;;;;;;;33.20;18.60;;;;;;;3.14;70.67;100879.53;108690;1273;22487;-81
2022/01/29 08:56:00;;;;;;;47.00;20.40;;;;;;;3.15;70.65;100864.73;108811;1274;22088;-80
2022/01/29 08:58:35;;;;;;;36.70;19.60;;;;;;;3.19;70.75;100864.57;108654;1276;22050;-81
2022/01/29 09:01:07;;;;;;;41.40;19.30;;;;;;;3.25;70.93;100857.23;108675;1276;23607;-81
2022/01/29 09:03:52;;;;;;;38.40;19.80;;;;;;;3.31;70.88;100844.98;108680;1276;21999;-80
2022/01/29 09:06:24;;;;;;;47.30;26.90;;;;;;;3.33;70.65;100834.73;108400;1279;23630;-81
2022/01/29 09:08:55;;;;;;;49.90;23.90;;;;;;;3.33;70.45;100828.28;108371;1279;23696;-81
2022/01/29 09:11:29;;;;;;;50.50;26.70;;;;;;;3.33;70.41;100819.22;108703;1273;23781;-82
2022/01/29 09:13:58;;;;;;;;;;;;;;;3.36;70.56;100809.98;108773;1273;21987;-79
2022/01/29 09:16:28;;;;;;;40.20;18.80;;;;;;;3.34;70.69;100804.39;108875;1270;23051;-80
2022/01/29 09:18:57;;;;;;;38.30;19.30;;;;;;;3.34;70.75;100802.98;108603;1276;23045;-80
2022/01/29 09:21:29;;;;;;;34.90;18.40;;;;;;;3.37;70.82;100805.00;108888;1273;22107;-76
2022/01/29 09:23:59;;;;;;;39.30;18.00;;;;;;;3.40;70.96;100800.31;108794;1273;23632;-83
2022/01/29 09:26:31;;;;;;;42.90;26.40;;;;;;;3.45;71.16;100792.98;108996;1273;22357;-82
2022/01/29 09:29:04;;;;;;;35.30;19.80;;;;;;;3.60;71.58;100784.33;108990;1273;23730;-83
2022/01/29 09:31:34;;;;;;;42.20;21.00;;;;;;;3.79;71.79;100780.88;109097;1267;22915;-83
2022/01/29 09:34:05;;;;;;;37.20;18.50;;;;;;;3.90;71.20;100780.09;109198;1267;22059;-82
2022/01/29 09:36:35;;;;;;;33.60;19.70;;;;;;;3.93;70.82;100779.49;109301;1267;22851;-83
2022/01/29 09:39:05;;;;;;;37.30;20.90;;;;;;;3.91;70.44;100778.43;109170;1269;21991;-84
2022/01/29 09:41:43;;;;;;;32.50;16.30;;;;;;;3.86;70.33;100781.41;109040;1272;23131;-82
2022/01/29 09:44:17;;;;;;;34.20;17.70;;;;;;;3.81;70.37;100778.49;108815;1273;22016;-82
2022/01/29 09:46:51;;;;;;;36.30;19.90;;;;;;;3.79;70.59;100773.55;108929;1273;23079;-80
2022/01/29 09:49:21;;;;;;;45.60;27.70;;;;;;;3.73;70.35;100775.38;108797;1276;22100;-82
2022/01/29 09:51:54;;;;;;;41.70;20.80;;;;;;;3.71;70.66;100770.79;108669;1276;22630;-82
2022/01/29 09:54:23;;;;;;;34.60;19.70;;;;;;;3.78;71.04;100765.45;108691;1277;22053;-84
2022/01/29 09:56:53;;;;;;;36.30;21.10;;;;;;;3.80;70.79;100762.17;108731;1276;23075;-83
2022/01/29 09:59:33;;;;;;;46.20;32.00;;;;;;;3.80;70.90;100757.98;108375;1282;23022;-83
2022/01/29 10:02:33;;;;;;;52.30;32.70;;;;;;;3.72;70.48;100755.09;108003;1285;22001;-84
2022/01/29 10:05:14;;;;;;;39.70;24.70;;;;;;;3.62;70.46;100750.98;108175;1285;22122;-83
2022/01/29 10:09:11;;;;;;;43.70;26.30;;;;;;;3.59;70.84;100746.11;108667;1279;22072;-83
2022/01/29 10:12:19;;;;;;;41.60;24.90;;;;;;;3.46;70.94;100737.85;108304;1285;22121;-83
2022/01/29 10:15:12;;;;;;;45.40;29.40;;;;;;;3.42;71.28;100729.61;108303;1283;23006;-85
2022/01/29 10:18:08;;;;;;;;;;;;;;;;;;;;;
2022/01/29 10:21:12;;;;;;;;;;;;;;;3.38;71.64;100714.89;109124;1273;21975;-81
2022/01/29 10:24:10;;;;;;;32.00;22.50;;;;;;;3.30;71.90;100708.50;108578;1273;23610;-78
2022/01/29 10:27:06;;;;;;;35.90;22.40;;;;;;;3.28;72.00;100700.80;108469;1274;21996;-78
2022/01/29 10:30:06;;;;;;;42.60;29.20;;;;;;;3.28;72.10;100692.80;108663;1273;22100;-78
2022/01/29 10:32:38;;;;;;;32.70;22.70;;;;;;;3.25;72.18;100683.52;108241;1280;21996;-78
2022/01/29 10:35:16;;;;;;;31.60;22.50;;;;;;;3.24;72.38;100680.79;108112;1282;23605;-79
2022/01/29 10:38:04;;;;;;;32.50;24.20;;;;;;;3.27;72.62;100674.13;107965;1282;23052;-82
2022/01/29 10:40:42;;;;;;;32.10;20.80;;;;;;;3.31;72.96;100670.00;107961;1283;22001;-80
2022/01/29 10:43:14;;;;;;;30.30;20.00;;;;;;;3.40;73.26;100658.73;108392;1282;22010;-79
2022/01/29 10:45:52;;;;;;;27.80;21.20;;;;;;;3.49;73.44;100648.77;108299;1280;22018;-78
2022/01/29 10:49:04;;;;;;;35.30;28.40;;;;;;;3.58;73.17;100646.24;108659;1275;22224;-79
2022/01/29 10:51:40;;;;;;;31.60;21.70;;;;;;;3.60;72.87;100638.10;108939;1273;21997;-80
2022/01/29 10:54:24;;;;;;;26.40;21.60;;;;;;;3.62;72.87;100632.54;108958;1273;22023;-81
2022/01/29 10:57:20;;;;;;;28.70;21.00;;;;;;;3.56;72.51;100624.43;109104;1267;23029;-80
2022/01/29 10:59:53;;;;;;;30.00;22.70;;;;;;;3.53;72.69;100619.08;109442;1260;22088;-79
2022/01/29 11:02:40;;;;;;;32.90;24.40;;;;;;;3.53;72.85;100614.70;109672;1262;22446;-80
2022/01/29 11:05:14;;;;;;;32.70;21.30;;;;;;;3.59;73.23;100605.90;109239;1268;23045;-80
2022/01/29 11:07:54;;;;;;;27.70;21.30;;;;;;;3.63;73.24;100598.97;109407;1267;22367;-80
2022/01/29 11:10:28;;;;;;;36.50;27.30;;;;;;;3.65;73.16;100591.17;109238;1270;22028;-79
2022/01/29 11:13:01;;;;;;;27.50;19.70;;;;;;;3.64;73.07;100584.15;109361;1267;21994;-82
2022/01/29 11:15:44;;;;;;;23.80;17.20;;;;;;;3.61;73.05;100580.19;109230;1270;22000;-79
2022/01/29 11:18:19;;;;;;;41.60;28.60;;;;;;;3.58;72.90;100576.60;109284;1267;24946;-82
2022/01/29 11:21:12;;;;;;;25.80;19.40;;;;;;;3.58;73.17;100569.40;109316;1267;21987;-81
2022/01/29 11:24:06;;;;;;;26.20;16.70;;;;;;;3.56;73.17;100557.93;109496;1264;22008;-78
2022/01/29 11:26:45;;;;;;;28.40;19.00;;;;;;;3.50;73.10;100546.83;109519;1263;21994;-76
2022/01/29 11:29:27;;;;;;;21.50;15.60;;;;;;;3.44;73.12;100540.70;109372;1263;23651;-75
2022/01/29 11:32:28;;;;;;;26.90;23.30;;;;;;;3.39;73.09;100533.08;109596;1263;21998;-77
2022/01/29 11:35:13;;;;;;;37.60;29.30;;;;;;;3.34;73.37;100525.61;109792;1262;21988;-78
2022/01/29 11:38:01;;;;;;;26.20;18.50;;;;;;;3.33;73.40;100515.80;109461;1263;22060;-78
2022/01/29 11:40:54;;;;;;;31.70;21.90;;;;;;;3.29;73.53;100508.40;109797;1261;21982;-76
2022/01/29 11:43:35;;;;;;;24.10;18.40;;;;;;;3.28;73.61;100499.48;109477;1260;22982;-76
2022/01/29 11:46:32;;;;;;;21.90;14.70;;;;;;;3.24;73.66;100494.66;109763;1261;21982;-76
2022/01/29 11:49:18;;;;;;;38.00;30.00;;;;;;;3.16;73.50;100484.52;109426;1263;23038;-77
2022/01/29 11:52:25;;;;;;;33.00;28.70;;;;;;;3.05;73.57;100475.77;109221;1265;24317;-77
2022/01/29 11:55:06;;;;;;;28.00;20.10;;;;;;;3.02;73.86;100468.04;109683;1263;22910;-77
2022/01/29 11:58:23;;;;;;;16.40;13.10;;;;;;;3.02;74.07;100465.75;109300;1264;22207;-77
2022/01/29 12:00:57;;;;;;;26.80;24.00;;;;;;;2.94;74.03;100455.23;109377;1265;23862;-76
2022/01/29 12:03:43;;;;;;;23.10;16.80;;;;;;;2.91;74.28;100453.55;109177;1267;23687;-75
2022/01/29 12:06:23;;;;;;;41.60;31.00;;;;;;;2.92;74.51;100447.20;109007;1270;22141;-76
2022/01/29 12:08:58;;;;;;;48.50;34.30;;;;;;;2.94;74.44;100440.30;108871;1271;22005;-76
2022/01/29 12:11:27;;;;;;;50.90;41.30;;;;;;;2.93;74.45;100433.39;109046;1267;23045;-76
2022/01/29 12:14:16;;;;;;;32.30;27.60;;;;;;;2.95;74.60;100426.27;108842;1270;22467;-76